Station: Cape Wessel

  Atmospheric Gas Attenuation - ITU Rec 676-11   --------------- db/100km ---------------
Date Time Temp RH % AH g/m3 Dew Point Wind Direction Speed kph Gust kph Barometer mB Rainfall Since 9am 24GHz 47GHz 76GHz 122GHz 134GHz 241GHz
07 07:40 25.4 92 21.66 24 9 11 1011.9 0 46.6 45.0 89.6 237.3 265.6 922.6
07 07:30 25 93 21.41 23.8 9 11 1011.7 0 46.1 44.7 88.9 235.2 262.9 913.2
07 07:20 24.5 93 20.81 23.3 9 9 1011.7 0 44.9 43.8 86.4 228.8 254.8 885.2
07 07:10 24.3 93 20.58 23.1 11 11 1011.6 0 44.4 43.4 85.5 226.3 251.8 874.5
07 07:00 24.2 94 20.68 23.2 11 11 1011.4 0 44.6 43.6 86.1 227.9 253.7 881.2
07 06:50 24 94 20.45 23 11 11 1011.4 0 44.2 43.3 85.2 225.5 250.7 870.6
07 06:40 23.9 93 20.12 22.7 11 13 1011.4 0 43.5 42.7 83.7 221.4 245.7 853.1
07 06:30 24 94 20.45 23 13 17 1011.2 0 44.2 43.3 85.2 225.4 250.6 870.4
07 06:20 24 94 20.45 23 13 13 1011.2 0 44.2 43.3 85.2 225.4 250.6 870.4
07 06:10 23.9 93 20.12 22.7 11 13 1011.1 0 43.5 42.7 83.6 221.4 245.6 853.0
07 06:00 24.1 94 20.57 23.1 11 13 1011 0 44.4 43.5 85.7 226.7 252.2 875.9
07 05:50 24 94 20.45 23 11 11 1011.1 0 44.2 43.3 85.2 225.4 250.6 870.4
07 05:40 24.1 94 20.57 23.1 11 13 1011.1 0 44.4 43.5 85.7 226.7 252.2 876.0
07 05:30 24 94 20.45 23 13 17 1011 0 44.2 43.3 85.2 225.4 250.6 870.3
07 05:20 24 94 20.45 23 11 13 1011.1 0 44.2 43.3 85.2 225.4 250.6 870.4
07 05:10 24 94 20.45 23 13 13 1011.1 0 44.2 43.3 85.2 225.4 250.6 870.4
07 04:50 23.9 93 20.12 22.7 11 13 1010.9 0 43.5 42.7 83.6 221.3 245.6 852.9
07 04:40 23.9 94 20.33 22.9 11 13 1010.8 0 43.9 43.1 84.7 224.1 249.0 864.6
07 04:30 23.9 94 20.33 22.9 11 13 1010.7 0 43.9 43.1 84.7 224.1 248.9 864.5
07 04:20 24.1 94 20.57 23.1 9 11 1010.8 0 44.4 43.4 85.6 226.7 252.2 875.8
07 04:10 24 94 20.45 23 11 13 1010.8 0 44.2 43.3 85.2 225.4 250.6 870.2
07 04:00 23.9 94 20.33 22.9 13 15 1010.6 0 43.9 43.1 84.7 224.1 248.9 864.5
07 03:50 23.9 94 20.33 22.9 13 15 1010.7 0 43.9 43.1 84.7 224.1 248.9 864.5
07 03:40 24 94 20.45 23 13 15 1010.8 0 44.2 43.3 85.2 225.4 250.6 870.2
07 03:30 24 94 20.45 23 11 15 1010.7 0 44.2 43.3 85.1 225.4 250.5 870.1
07 03:20 23.9 94 20.33 22.9 13 13 1010.8 0 43.9 43.1 84.7 224.1 249.0 864.6
07 03:10 23.6 94 19.99 22.6 11 11 1010.9 0 43.2 42.6 83.3 220.5 244.5 849.0
07 03:00 23.3 93 19.44 22.1 9 9 1010.9 0 42.1 41.6 80.9 214.2 236.6 821.6
07 02:50 23.4 93 19.55 22.2 7 9 1011.1 0 42.3 41.8 81.4 215.4 238.1 826.7
07 02:40 23.6 94 19.99 22.6 7 9 1011.2 0 43.2 42.6 83.3 220.6 244.5 849.2
07 02:30 23.5 93 19.67 22.3 7 9 1011.1 0 42.6 42.0 81.9 216.6 239.7 832.3
07 02:20 23.6 93 19.78 22.4 9 9 1011.3 0 42.8 42.2 82.3 217.8 241.2 837.5
07 02:10 23.6 93 19.78 22.4 9 9 1011.4 0 42.8 42.2 82.3 217.8 241.2 837.5
07 02:00 23.7 93 19.89 22.5 7 9 1011.4 0 43.0 42.3 82.8 219.0 242.6 842.5
07 01:50 23.7 93 19.89 22.5 9 9 1011.5 0 43.0 42.3 82.8 219.0 242.6 842.6
07 01:40 23.7 93 19.89 22.5 9 9 1011.6 0 43.0 42.3 82.8 219.0 242.6 842.7
07 01:30 23.7 93 19.89 22.5 9 9 1011.5 0 43.0 42.3 82.8 219.0 242.6 842.6
07 01:20 23.8 93 20 22.6 9 9 1011.6 0 43.2 42.5 83.2 220.2 244.1 847.7
07 01:10 23.7 92 19.68 22.3 7 9 1011.7 0 42.6 41.9 81.7 216.3 239.3 831.0
07 01:00 23.8 92 19.79 22.4 9 11 1011.6 0 42.8 42.1 82.2 217.4 240.7 835.9
07 00:50 23.7 92 19.68 22.3 9 9 1011.7 0 42.6 41.9 81.7 216.3 239.3 831.0
07 00:40 23.7 91 19.46 22.1 7 9 1011.8 0 42.1 41.5 80.7 213.4 235.8 818.8
07 00:30 23.8 91 19.57 22.2 9 9 1011.8 0 42.3 41.7 81.1 214.6 237.2 823.8
07 00:20 23.8 91 19.57 22.2 9 9 1012 0 42.3 41.7 81.1 214.6 237.3 823.9
07 00:10 23.9 91 19.69 22.3 9 9 1012 0 42.6 41.9 81.6 215.9 238.8 829.5
07 00:00 23.9 91 19.69 22.3 9 11 1012 0 42.6 41.9 81.6 215.9 238.8 829.5
06 23:50 24 91 19.8 22.4 7 9 1012.2 0 42.8 42.0 82.0 217.1 240.3 834.6
06 23:40 24.1 91 19.91 22.5 9 11 1012.3 0 43.0 42.2 82.5 218.2 241.8 839.7
06 23:30 24.3 91 20.14 22.7 9 11 1012.3 0 43.5 42.6 83.4 220.7 244.8 850.2
06 23:20 24.3 91 20.14 22.7 11 11 1012.4 0 43.5 42.6 83.4 220.7 244.8 850.3
06 23:10 24.4 91 20.25 22.8 11 13 1012.4 0 43.7 42.7 83.8 221.8 246.2 855.3
06 23:00 24.3 91 20.14 22.7 11 13 1012.4 0 43.5 42.6 83.4 220.7 244.8 850.3
06 22:50 24.3 92 20.36 22.9 13 13 1012.6 0 43.9 43.0 84.5 223.6 248.4 862.7
06 22:40 24.4 92 20.47 23 11 13 1012.5 0 44.2 43.2 84.9 224.7 249.8 867.7
06 22:30 24.3 92 20.36 22.9 11 13 1012.4 0 43.9 43.0 84.5 223.6 248.4 862.6
06 22:20 24.4 92 20.47 23 13 13 1012.4 0 44.2 43.2 84.9 224.7 249.8 867.6
06 22:10 24.3 92 20.36 22.9 11 11 1012.4 0 43.9 43.0 84.5 223.6 248.4 862.6
06 22:00 24.3 92 20.36 22.9 11 13 1012.2 0 43.9 43.0 84.5 223.5 248.3 862.5
06 21:50 24.2 92 20.24 22.8 11 11 1012.3 0 43.7 42.8 84.0 222.3 246.7 857.0
06 21:40 24.1 92 20.13 22.7 11 13 1012.2 0 43.5 42.6 83.5 221.1 245.3 851.9
06 21:30 24 91 19.8 22.4 9 11 1012.1 0 42.8 42.0 82.0 217.1 240.3 834.6
06 21:20 23.9 91 19.69 22.3 9 9 1012.1 0 42.6 41.9 81.6 215.9 238.9 829.6
06 21:10 23.9 91 19.69 22.3 9 9 1012 0 42.6 41.9 81.6 215.9 238.8 829.5
06 21:00 23.9 90 19.47 22.2 9 9 1011.9 0 42.1 41.4 80.5 213.0 235.3 817.3
06 20:50 23.9 90 19.47 22.2 7 9 1011.9 0 42.1 41.4 80.5 213.0 235.3 817.3
06 20:40 24 90 19.58 22.3 7 9 1011.8 0 42.3 41.6 80.9 214.1 236.7 822.2
06 20:30 24 89 19.36 22.1 7 9 1011.6 0 41.8 41.1 79.9 211.3 233.2 810.0
06 20:20 24.1 89 19.47 22.2 7 7 1011.6 0 42.1 41.3 80.3 212.4 234.6 814.9
06 20:10 24.1 88 19.25 22 7 9 1011.5 0 41.6 40.9 79.2 209.6 231.2 802.8
06 20:00 24.3 88 19.47 22.2 9 9 1011.3 0 42.0 41.2 80.0 211.8 234.0 812.6
06 19:50 24.4 88 19.58 22.3 9 9 1011.3 0 42.3 41.4 80.5 212.9 235.4 817.5
06 19:40 24.5 87 19.47 22.2 7 9 1011.1 0 42.0 41.1 79.8 211.2 233.3 810.3
06 19:30 24.6 87 19.58 22.3 9 11 1010.8 0 42.3 41.2 80.2 212.3 234.7 815.1
06 19:20 24.7 86 19.47 22.2 11 11 1010.9 0 42.0 41.0 79.6 210.6 232.6 808.1
06 19:10 24.7 86 19.47 22.2 9 9 1010.9 0 42.0 41.0 79.6 210.6 232.6 808.1
06 19:00 24.8 86 19.57 22.3 11 13 1010.7 0 42.2 41.1 80.0 211.6 233.9 812.3
06 18:50 24.9 87 19.91 22.6 11 13 1010.6 0 42.9 41.7 81.5 215.6 238.9 829.8
06 18:40 25 87 20.03 22.7 13 15 1010.5 0 43.2 41.9 82.0 216.9 240.5 835.2
06 18:30 25.1 86 19.91 22.6 13 15 1010.4 0 42.9 41.6 81.3 215.0 238.2 827.5
06 18:20 25.2 85 19.79 22.5 11 13 1010.5 0 42.6 41.3 80.6 213.2 236.0 819.9
06 18:10 25.4 85 20.01 22.7 13 15 1010.5 0 43.1 41.7 81.4 215.5 238.8 829.7
06 18:00 25.6 84 20 22.7 13 15 1010.3 0 43.0 41.5 81.1 214.7 238.0 826.8
06 17:50 25.7 84 20.11 22.8 11 13 1010.3 0 43.3 41.7 81.6 215.9 239.4 831.7
06 17:40 25.9 83 20.09 22.8 11 13 1010.2 0 43.2 41.6 81.2 215.0 238.4 828.4
06 17:30 26.1 82 20.08 22.8 15 19 1010.1 0 43.2 41.4 81.0 214.3 237.6 825.6
06 17:20 26.3 80 19.8 22.6 13 15 1010.1 0 42.5 40.8 79.4 210.2 232.7 808.3
06 17:10 26.9 77 19.71 22.5 13 15 1009.9 0 42.3 40.3 78.4 207.4 229.4 797.0
06 17:00 26.9 77 19.71 22.5 13 17 1009.8 0 42.3 40.3 78.4 207.4 229.4 797.0
06 16:50 27.6 75 19.95 22.8 13 17 1009.8 0 42.7 40.4 78.8 208.4 230.9 802.3
06 16:40 27.5 77 20.37 23.1 15 17 1009.7 0 43.6 41.3 80.8 213.9 237.6 825.7
06 16:30 27.7 75 20.06 22.9 13 17 1009.5 0 42.9 40.6 79.1 209.5 232.2 806.9
06 16:20 28.2 73 20.07 22.9 13 15 1009.5 0 42.9 40.4 78.7 208.2 230.8 802.1
06 16:10 28.3 73 20.18 23 15 17 1009.5 0 43.1 40.5 79.1 209.3 232.1 806.8
06 16:00 28.7 71 20.06 22.9 13 15 1009.3 0 42.8 40.1 78.1 206.7 229.1 796.2
06 15:50 28.9 70 20 22.9 11 13 1009.3 0 42.7 39.9 77.6 205.4 227.6 791.0
06 15:40 28.8 68 19.32 22.5 13 15 1009.3 0 41.3 38.7 74.6 197.5 217.8 757.0
06 15:30 29.3 69 20.15 23 13 17 1009.2 0 43.0 40.0 77.9 206.2 228.6 794.6
06 15:20 29.1 69 19.93 22.8 13 15 1009.3 0 42.5 39.7 77.1 204.1 225.9 785.3
06 15:10 29.1 68 19.64 22.6 13 13 1009.3 0 41.9 39.1 75.8 200.5 221.6 770.4
06 15:00 29.3 69 20.15 23 13 17 1009.2 0 43.0 40.0 77.9 206.2 228.6 794.6

Last Refresh: 07-Aug-2020 07:51:16

Most of the information presented on this site is sourced from the Bureau of Meteorology.  Copyright in all material sourced from the Bureau of Meteorology resides with the Commonwealth of Australia.